Time;durP1;ratioP1;P1;durP2;ratioP2;P2;SDS_P1;SDS_P2;PMS_P1;PMS_P2;Temp;Humidity;BMP_temperature;BMP_pressure;BME280_temperature;BME280_humidity;BME280_pressure;Samples;Min_cycle;Max_cycle;Signal;HPM_P1;HPM_P2
2022/02/01 00:06:54;;;;;;;89.60;36.20;;;;;;;3.08;61.45;98039.89;220366;1279;140118;-59
2022/02/01 00:33:26;;;;;;;89.60;36.40;;;;;;;3.03;62.06;98061.15;220657;1279;138933;-58
2022/02/01 00:43:33;;;;;;;98.50;38.00;;;;;;;3.03;62.17;98066.08;221137;1277;139717;-60
2022/02/01 00:48:36;;;;;;;92.40;37.80;;;;;;;3.01;62.20;98073.15;220836;1279;139935;-62
2022/02/01 00:53:41;;;;;;;87.90;37.00;;;;;;;2.99;62.28;98076.92;221076;1277;139042;-62
2022/02/01 00:58:45;;;;;;;83.90;36.40;;;;;;;2.97;62.50;98075.45;220397;1280;139163;-64
2022/02/01 01:03:48;;;;;;;84.90;35.00;;;;;;;2.97;62.55;98074.40;221122;1277;138749;-59
2022/02/01 01:08:51;;;;;;;92.10;37.00;;;;;;;2.96;62.69;98078.33;220745;1279;139485;-59
2022/02/01 02:05:31;;;;;;;99.70;38.90;;;;;;;2.70;63.56;98119.83;214667;1313;637523;-58
2022/02/01 02:14:32;;;;;;;96.60;38.00;;;;;;;2.63;63.77;98133.77;214113;1313;636907;-59
2022/02/01 02:19:35;;;;;;;92.40;36.40;;;;;;;2.61;63.85;98139.45;218068;1290;138363;-57
2022/02/01 02:24:41;;;;;;;99.70;37.50;;;;;;;2.62;63.91;98139.08;218204;1288;139212;-58
2022/02/01 02:29:44;;;;;;;86.90;37.50;;;;;;;2.63;63.88;98137.61;218704;1287;138825;-62
2022/02/01 02:34:47;;;;;;;103.30;40.40;;;;;;;2.66;63.83;98135.58;218827;1288;137940;-58
2022/02/01 02:40:19;;;;;;;97.50;38.60;;;;;;;2.74;64.04;98150.30;218958;1289;139035;-57
2022/02/01 02:45:22;;;;;;;113.50;39.50;;;;;;;2.87;63.96;98159.65;218996;1287;138508;-56
2022/02/01 02:50:25;;;;;;;106.30;41.60;;;;;;;2.95;63.82;98165.59;219151;1287;138486;-55
2022/02/01 02:55:31;;;;;;;106.00;41.40;;;;;;;2.99;63.82;98171.70;218765;1286;139199;-59
2022/02/01 03:00:35;;;;;;;90.10;39.10;;;;;;;3.05;63.82;98181.80;218458;1290;137802;-59
2022/02/01 03:05:38;;;;;;;93.60;39.60;;;;;;;3.08;63.83;98189.89;218494;1289;139033;-59
2022/02/01 03:10:44;;;;;;;94.60;38.10;;;;;;;3.09;63.76;98191.08;218831;1289;138904;-57
2022/02/01 03:15:56;;;;;;;;;;;;;;;3.09;63.65;98198.77;218623;1289;138491;-59
2022/02/01 03:20:59;;;;;;;90.90;38.70;;;;;;;3.07;63.90;98209.54;218670;1289;125552;-58
2022/02/01 03:26:03;;;;;;;91.10;37.40;;;;;;;3.05;63.66;98223.83;218910;1290;138486;-59
2022/02/01 03:31:06;;;;;;;93.50;36.60;;;;;;;3.04;63.76;98220.23;218704;1288;138643;-61
2022/02/01 03:36:09;;;;;;;83.90;35.80;;;;;;;3.01;63.73;98222.61;218638;1289;139394;-58
2022/02/01 03:41:13;;;;;;;88.80;35.90;;;;;;;2.98;63.69;98230.98;218702;1289;138752;-60
2022/02/01 03:46:16;;;;;;;90.60;35.60;;;;;;;2.97;63.75;98237.69;218947;1288;139877;-58
2022/02/01 03:51:19;;;;;;;90.60;35.30;;;;;;;2.99;63.78;98239.00;218870;1288;140475;-58
2022/02/01 03:56:22;;;;;;;87.50;33.90;;;;;;;3.04;64.03;98226.00;218700;1289;138358;-58
2022/02/01 04:01:27;;;;;;;81.60;32.80;;;;;;;3.09;63.98;98230.48;218591;1289;138135;-58
2022/02/01 04:06:30;;;;;;;76.30;31.10;;;;;;;3.10;63.97;98233.10;218951;1289;138297;-58
2022/02/01 04:11:33;;;;;;;80.30;33.50;;;;;;;3.09;64.00;98234.00;218383;1289;138049;-57
2022/02/01 04:16:36;;;;;;;74.90;31.90;;;;;;;3.08;63.88;98230.02;218517;1290;138675;-59
2022/02/01 04:21:46;;;;;;;76.90;32.30;;;;;;;3.06;63.91;98226.41;218575;1289;138386;-59
2022/02/01 04:26:49;;;;;;;208.40;105.50;;;;;;;3.04;63.95;98229.12;218765;1289;138667;-57
2022/02/01 04:31:53;;;;;;;82.70;36.20;;;;;;;3.16;64.35;98231.61;218909;1288;138570;-61
2022/02/01 04:36:56;;;;;;;88.60;33.90;;;;;;;3.14;63.82;98230.46;218482;1290;138270;-60
2022/02/01 04:41:59;;;;;;;76.10;32.40;;;;;;;3.08;63.78;98236.34;220788;1279;138180;-58
2022/02/01 04:47:02;;;;;;;88.30;33.20;;;;;;;3.00;63.94;98257.36;221191;1277;138302;-59
2022/02/01 04:52:05;;;;;;;78.10;30.90;;;;;;;2.97;63.91;98260.29;221048;1277;138508;-60
2022/02/01 04:57:08;;;;;;;71.40;29.60;;;;;;;2.99;64.03;98255.98;220909;1277;140076;-58
2022/02/01 05:02:11;;;;;;;68.60;26.70;;;;;;;3.05;64.00;98265.20;220888;1278;138321;-59
2022/02/01 05:07:19;;;;;;;221.00;111.00;;;;;;;3.06;63.98;98274.09;220925;1277;139474;-58
2022/02/01 05:12:23;;;;;;;76.70;29.90;;;;;;;3.15;64.10;98273.02;220993;1277;139176;-60
2022/02/01 05:17:26;;;;;;;67.80;28.60;;;;;;;3.14;64.04;98276.39;221077;1277;138674;-60
2022/02/01 05:22:32;;;;;;;64.80;27.80;;;;;;;3.11;63.76;98282.48;221042;1278;138420;-60
2022/02/01 05:27:34;;;;;;;63.10;25.60;;;;;;;3.04;63.77;98295.20;221181;1277;138762;-60
2022/02/01 05:32:38;;;;;;;55.00;22.90;;;;;;;2.97;63.56;98300.23;221389;1277;139042;-60
2022/02/01 05:37:41;;;;;;;55.20;21.10;;;;;;;2.89;63.47;98294.80;220994;1277;139266;-59
2022/02/01 05:42:56;;;;;;;54.50;21.40;;;;;;;2.81;63.37;98306.00;220895;1278;138227;-60
2022/02/01 05:48:03;;;;;;;57.10;20.00;;;;;;;2.73;63.47;98316.14;220831;1280;138335;-59
2022/02/01 05:53:07;;;;;;;49.50;18.90;;;;;;;2.66;63.28;98316.10;221084;1277;138676;-59
2022/02/01 05:58:09;;;;;;;43.80;17.90;;;;;;;2.64;63.25;98322.14;220983;1277;139429;-58
2022/02/01 06:03:12;;;;;;;49.60;17.50;;;;;;;2.63;63.15;98328.34;220879;1280;139294;-60
2022/02/01 06:08:15;;;;;;;43.80;17.30;;;;;;;2.62;63.17;98342.73;220981;1277;138861;-60
2022/02/01 06:13:19;;;;;;;40.20;15.40;;;;;;;2.61;63.18;98349.23;221222;1277;140113;-59
2022/02/01 06:18:21;;;;;;;42.70;15.50;;;;;;;2.58;63.07;98353.04;220802;1277;139558;-59
2022/02/01 06:23:24;;;;;;;43.90;16.10;;;;;;;2.54;63.21;98355.13;220481;1280;139524;-60
2022/02/01 06:28:28;;;;;;;37.50;15.90;;;;;;;2.50;63.09;98364.89;220822;1277;138576;-60
2022/02/01 06:33:31;;;;;;;43.80;15.70;;;;;;;2.48;63.26;98367.61;220714;1277;139252;-59
2022/02/01 06:38:34;;;;;;;46.30;16.30;;;;;;;2.47;63.35;98375.34;220973;1277;138172;-60
2022/02/01 06:43:37;;;;;;;34.60;15.20;;;;;;;2.48;63.17;98392.30;220903;1279;138599;-58
2022/02/01 06:48:41;;;;;;;37.40;14.30;;;;;;;2.43;63.27;98404.05;220923;1277;138690;-59
2022/02/01 06:53:45;;;;;;;31.40;13.90;;;;;;;2.36;63.20;98413.58;221000;1277;138751;-59
2022/02/01 06:58:48;;;;;;;34.70;14.40;;;;;;;2.29;63.25;98416.52;220952;1277;138788;-59
2022/02/01 07:03:52;;;;;;;39.90;13.60;;;;;;;2.29;63.38;98414.55;221151;1277;139119;-57
2022/02/01 07:08:57;;;;;;;38.40;14.50;;;;;;;2.32;63.35;98410.44;220897;1277;138489;-58
2022/02/01 07:14:00;;;;;;;37.60;14.30;;;;;;;2.32;63.38;98415.34;220671;1278;138536;-57
2022/02/01 07:19:03;;;;;;;38.00;13.80;;;;;;;2.36;63.18;98425.30;221148;1277;139473;-59
2022/02/01 07:24:12;;;;;;;32.90;13.10;;;;;;;2.46;63.48;98427.38;220769;1277;141831;-59
2022/02/01 07:29:15;;;;;;;36.60;14.40;;;;;;;2.55;63.45;98426.35;220820;1277;138751;-60
2022/02/01 07:34:18;;;;;;;35.70;13.90;;;;;;;2.61;63.23;98430.83;220966;1279;138939;-57
2022/02/01 07:39:22;;;;;;;31.60;12.90;;;;;;;2.65;63.28;98436.10;220979;1277;138857;-59
2022/02/01 07:44:24;;;;;;;35.90;12.80;;;;;;;2.66;63.04;98439.56;221274;1277;138949;-59
2022/02/01 07:49:28;;;;;;;39.50;14.50;;;;;;;2.63;63.13;98439.34;221141;1277;139811;-58
2022/02/01 07:54:31;;;;;;;38.70;14.60;;;;;;;2.66;63.29;98438.85;221125;1277;138740;-58
2022/02/01 07:59:35;;;;;;;38.80;15.80;;;;;;;2.72;63.32;98444.77;220845;1277;138600;-58
2022/02/01 08:04:38;;;;;;;36.00;15.20;;;;;;;2.77;63.33;98450.33;220969;1279;138527;-58
2022/02/01 08:09:45;;;;;;;46.00;16.20;;;;;;;2.77;63.14;98445.77;221022;1277;138904;-58
2022/02/01 08:20:14;;;;;;;36.90;15.80;;;;;;;2.80;63.02;98448.80;221143;1277;138176;-57
2022/02/01 08:25:17;;;;;;;36.20;16.40;;;;;;;2.69;62.81;98450.46;220914;1279;138765;-56
2022/02/01 08:30:20;;;;;;;40.90;16.50;;;;;;;2.58;62.93;98451.42;221166;1277;139470;-57
2022/02/01 08:35:24;;;;;;;39.30;17.20;;;;;;;2.55;63.04;98456.64;221337;1277;138495;-57
2022/02/01 08:40:48;;;;;;;35.70;15.40;;;;;;;2.60;63.01;98454.67;220808;1279;138226;-57
2022/02/01 08:45:51;;;;;;;38.40;16.90;;;;;;;2.66;63.04;98448.13;220989;1277;138271;-59
2022/02/01 08:50:58;;;;;;;39.80;16.80;;;;;;;2.76;63.09;98440.39;221038;1277;139236;-59
2022/02/01 08:56:03;;;;;;;42.20;16.60;;;;;;;2.89;63.12;98428.83;221227;1277;138608;-60
2022/02/01 09:01:07;;;;;;;42.50;16.80;;;;;;;2.98;62.99;98425.81;220964;1277;138986;-58
2022/02/01 09:06:10;;;;;;;41.10;17.70;;;;;;;3.00;62.91;98437.30;220863;1278;139582;-58
2022/02/01 09:11:14;;;;;;;41.60;17.80;;;;;;;3.03;62.81;98440.69;220798;1277;138476;-59
2022/02/01 09:16:20;;;;;;;46.20;17.80;;;;;;;2.99;62.59;98445.74;221282;1277;138884;-60
2022/02/01 09:21:23;;;;;;;45.00;18.80;;;;;;;2.97;62.69;98451.09;220935;1277;139347;-58
2022/02/01 09:26:26;;;;;;;46.60;18.70;;;;;;;2.89;62.24;98449.66;220941;1279;138424;-58
2022/02/01 09:31:50;;;;;;;46.40;19.10;;;;;;;2.81;62.42;98439.27;221045;1277;139140;-58
2022/02/01 09:36:54;;;;;;;41.50;18.60;;;;;;;2.84;62.79;98443.73;221160;1277;141345;-58
2022/02/01 09:41:59;;;;;;;42.60;17.10;;;;;;;3.00;62.95;98451.52;220862;1277;139735;-58
2022/02/01 09:47:02;;;;;;;30.80;13.50;;;;;;;3.12;62.68;98460.99;221134;1277;138710;-58
2022/02/01 09:52:06;;;;;;;34.10;14.10;;;;;;;3.15;62.23;98466.48;221133;1277;138833;-57
2022/02/01 09:57:09;;;;;;;27.70;12.80;;;;;;;3.20;62.05;98456.63;221098;1277;139021;-59
2022/02/01 10:02:13;;;;;;;31.40;12.30;;;;;;;3.22;61.55;98435.69;221187;1277;139097;-59
2022/02/01 10:07:18;;;;;;;28.30;13.60;;;;;;;3.27;61.48;98430.41;220769;1279;138602;-58
2022/02/01 10:12:22;;;;;;;29.10;12.90;;;;;;;3.29;60.99;98426.98;221020;1277;139088;-60
2022/02/01 10:17:56;;;;;;;30.00;13.90;;;;;;;3.27;60.70;98433.00;220780;1277;138925;-59
2022/02/01 10:22:59;;;;;;;39.30;15.30;;;;;;;3.23;60.77;98441.63;220833;1277;138770;-59
2022/02/01 10:28:03;;;;;;;28.60;13.70;;;;;;;3.31;61.04;98434.95;220909;1278;138515;-59
2022/02/01 10:38:51;;;;;;;35.40;13.50;;;;;;;3.34;60.69;98434.66;221526;1277;138862;-60
2022/02/01 10:43:59;;;;;;;32.20;13.00;;;;;;;3.32;60.65;98434.40;220798;1277;139432;-59
2022/02/01 10:49:03;;;;;;;33.10;14.40;;;;;;;3.33;60.57;98425.41;220645;1277;138504;-60
2022/02/01 10:54:06;;;;;;;35.70;13.90;;;;;;;3.33;60.59;98423.30;221117;1277;140043;-61
2022/02/01 10:59:09;;;;;;;30.30;12.50;;;;;;;3.35;60.34;98411.67;221292;1277;138346;-61
2022/02/01 11:04:12;;;;;;;31.50;12.00;;;;;;;3.31;60.08;98397.96;221137;1277;140384;-60
2022/02/01 11:09:15;;;;;;;24.80;10.80;;;;;;;3.29;59.63;98397.18;221162;1277;139828;-59
2022/02/01 11:14:24;;;;;;;27.40;11.60;;;;;;;3.26;59.71;98386.79;221013;1277;138816;-62
2022/02/01 11:19:28;;;;;;;26.10;11.10;;;;;;;3.28;59.50;98383.52;221049;1277;138148;-60
2022/02/01 11:24:34;;;;;;;26.90;11.20;;;;;;;3.25;59.46;98394.70;220689;1279;139560;-59
2022/02/01 11:30:02;;;;;;;37.90;11.30;;;;;;;3.27;59.63;98387.30;220723;1279;138443;-60
2022/02/01 11:35:07;;;;;;;75.40;36.60;;;;;;;3.31;59.82;98378.34;220984;1277;138673;-61
2022/02/01 11:40:42;;;;;;;28.50;12.20;;;;;;;3.43;59.86;98385.70;221139;1277;139063;-60
2022/02/01 11:46:10;;;;;;;25.80;11.70;;;;;;;3.42;59.49;98378.72;220741;1277;138508;-61
2022/02/01 11:51:16;;;;;;;31.70;11.90;;;;;;;3.32;59.14;98375.64;221013;1277;232901;-60
2022/02/01 11:56:36;;;;;;;29.20;12.80;;;;;;;3.21;59.21;98375.59;220863;1277;139073;-59
2022/02/01 12:01:39;;;;;;;29.60;13.30;;;;;;;3.17;59.60;98366.31;220825;1277;138703;-61
2022/02/01 12:06:51;;;;;;;32.10;13.50;;;;;;;3.14;59.57;98359.95;220758;1278;139331;-61
2022/02/01 12:11:59;;;;;;;31.20;15.00;;;;;;;3.09;59.50;98361.41;220844;1277;138991;-61
2022/02/01 12:17:04;;;;;;;35.40;16.70;;;;;;;3.00;59.71;98357.24;220476;1277;141240;-59
2022/02/01 12:22:30;;;;;;;36.00;16.40;;;;;;;2.93;59.88;98349.45;220698;1275;138962;-60
2022/02/01 12:27:37;;;;;;;38.20;15.50;;;;;;;2.87;60.08;98342.70;220885;1277;138749;-60
2022/02/01 12:32:52;;;;;;;27.20;12.20;;;;;;;2.82;60.37;98342.02;221117;1277;139691;-58
2022/02/01 12:38:10;;;;;;;27.70;10.50;;;;;;;2.71;60.31;98343.58;220404;1280;139163;-59
2022/02/01 12:43:18;;;;;;;27.10;10.20;;;;;;;2.59;60.44;98341.75;220526;1279;141434;-60
2022/02/01 12:48:22;;;;;;;20.10;9.50;;;;;;;2.54;60.68;98333.05;220731;1279;138209;-59
2022/02/01 12:53:25;;;;;;;23.70;9.30;;;;;;;2.54;60.83;98327.80;220699;1278;138783;-61
2022/02/01 12:58:28;;;;;;;21.60;9.40;;;;;;;2.52;60.90;98329.64;221099;1277;139089;-59
2022/02/01 13:03:44;;;;;;;21.90;10.40;;;;;;;2.49;61.07;98324.31;221131;1277;138783;-58
2022/02/01 13:15:06;;;;;;;29.80;13.20;;;;;;;2.49;61.54;98314.88;220815;1277;138469;-59
2022/02/01 13:25:30;;;;;;;;;;;;;;;2.62;62.28;98294.57;220964;1277;140691;-61
2022/02/01 13:30:35;;;;;;;27.80;12.80;;;;;;;2.65;62.40;98282.34;220876;1277;125864;-60
2022/02/01 13:35:52;;;;;;;16.90;7.60;;;;;;;2.75;62.71;98276.15;220914;1277;138471;-61
2022/02/01 13:40:55;;;;;;;23.60;11.40;;;;;;;2.83;62.65;98267.73;221460;1277;138649;-59
2022/02/01 13:46:01;;;;;;;21.30;10.40;;;;;;;2.86;62.53;98265.00;220997;1277;138566;-58
2022/02/01 13:51:06;;;;;;;22.70;10.20;;;;;;;2.86;62.42;98253.60;220926;1277;138443;-59
2022/02/01 13:56:09;;;;;;;26.20;10.80;;;;;;;2.86;62.60;98244.65;220818;1277;138896;-59
2022/02/01 14:01:17;;;;;;;23.90;10.90;;;;;;;2.86;62.56;98235.52;221059;1277;138485;-58
2022/02/01 14:12:03;;;;;;;26.20;12.10;;;;;;;2.85;62.81;98198.63;220635;1279;139134;-59
2022/02/01 14:28:10;;;;;;;20.90;9.40;;;;;;;2.85;62.74;98180.77;220531;1277;208318;-64
2022/02/01 14:33:29;;;;;;;22.90;11.20;;;;;;;2.88;63.05;98164.33;221135;1277;139939;-59
2022/02/01 14:43:50;;;;;;;20.70;10.90;;;;;;;3.10;63.23;98141.08;220811;1277;138786;-58
2022/02/01 14:48:53;;;;;;;22.90;10.40;;;;;;;3.16;62.96;98131.53;220957;1277;138967;-58
2022/02/01 14:53:57;;;;;;;23.40;10.60;;;;;;;3.16;62.90;98129.09;221043;1276;138475;-59
2022/02/01 15:15:14;;;;;;;22.50;10.60;;;;;;;3.21;62.93;98121.81;221260;1276;140309;-59
2022/02/01 15:20:17;;;;;;;20.80;10.00;;;;;;;3.22;62.86;98119.64;220736;1277;139480;-56
2022/02/01 15:25:20;;;;;;;26.80;12.60;;;;;;;3.27;63.02;98119.79;220553;1276;138699;-58
2022/02/01 15:30:24;;;;;;;22.20;10.30;;;;;;;3.44;63.66;98106.89;220796;1277;138709;-58
2022/02/01 15:35:28;;;;;;;17.60;8.00;;;;;;;3.52;62.91;98107.55;220708;1277;139522;-58
2022/02/01 16:02:09;;;;;;;19.40;8.80;;;;;;;3.21;63.01;98110.08;220744;1277;139476;-57
2022/02/01 16:07:16;;;;;;;15.60;8.50;;;;;;;3.17;63.26;98103.98;220862;1277;140603;-58
2022/02/01 16:12:40;;;;;;;;;;;;;;;3.13;63.41;98092.60;220739;1278;138238;-58
2022/02/01 16:17:43;;;;;;;20.30;9.40;;;;;;;3.09;63.49;98094.37;220866;1277;125195;-58
2022/02/01 16:22:45;;;;;;;18.80;9.60;;;;;;;3.10;63.89;98087.97;220735;1277;139115;-58
2022/02/01 16:27:48;;;;;;;17.60;9.20;;;;;;;3.18;63.77;98073.07;220957;1277;138933;-57
2022/02/01 16:32:52;;;;;;;17.60;9.80;;;;;;;3.16;63.73;98057.02;221026;1277;138854;-60
2022/02/01 16:37:55;;;;;;;17.20;9.40;;;;;;;3.08;63.70;98047.08;220969;1277;139262;-59
2022/02/01 16:43:17;;;;;;;22.10;11.30;;;;;;;2.98;63.89;98039.30;220749;1278;138623;-60
2022/02/01 16:48:20;;;;;;;17.10;10.60;;;;;;;2.87;63.89;98028.64;220506;1279;138882;-58
2022/02/01 16:53:31;;;;;;;21.00;10.50;;;;;;;2.81;63.98;98019.10;220905;1277;139084;-60
2022/02/01 16:58:44;;;;;;;22.90;10.80;;;;;;;2.76;64.06;98000.77;220919;1277;139140;-58
2022/02/01 17:03:47;;;;;;;20.70;9.90;;;;;;;2.72;64.03;97998.18;220488;1279;138766;-58
2022/02/01 17:08:50;;;;;;;19.60;9.60;;;;;;;2.72;63.98;97989.79;220776;1279;139352;-58
2022/02/01 17:14:53;;;;;;;18.70;9.70;;;;;;;2.72;64.13;97977.67;220996;1277;138707;-60
2022/02/01 17:19:32;;;;;;;18.50;9.60;;;;;;;2.68;63.84;97964.55;220928;1277;143939;-60
2022/02/01 17:24:35;;;;;;;18.90;10.20;;;;;;;2.65;63.91;97955.45;220935;1277;138989;-59
2022/02/01 17:29:40;;;;;;;16.70;9.90;;;;;;;2.63;64.09;97953.77;220813;1277;139005;-60
2022/02/01 17:34:43;;;;;;;20.00;10.40;;;;;;;2.63;63.96;97950.64;220701;1279;139223;-60
2022/02/01 17:39:46;;;;;;;16.50;10.00;;;;;;;2.61;63.98;97938.81;220688;1279;140174;-60
2022/02/01 17:44:49;;;;;;;57.50;32.60;;;;;;;2.60;64.01;97928.17;221091;1275;138939;-57
2022/02/01 17:49:52;;;;;;;22.40;11.90;;;;;;;2.65;64.05;97922.35;220822;1277;139278;-60
2022/02/01 17:54:56;;;;;;;16.80;10.90;;;;;;;2.68;63.98;97913.77;220667;1278;139242;-58
2022/02/01 17:59:59;;;;;;;19.90;10.30;;;;;;;2.75;63.79;97897.67;220603;1279;139740;-60
2022/02/01 18:05:14;;;;;;;24.00;10.60;;;;;;;2.75;63.58;97885.94;221295;1277;139211;-59
2022/02/01 18:10:17;;;;;;;16.00;9.60;;;;;;;2.74;63.34;97874.63;220894;1277;138855;-58
2022/02/01 18:15:20;;;;;;;17.10;10.00;;;;;;;2.72;63.42;97869.30;221024;1277;139203;-58
2022/02/01 18:20:24;;;;;;;21.00;10.40;;;;;;;2.69;63.34;97858.40;220851;1277;139175;-59
2022/02/01 18:25:28;;;;;;;18.50;9.90;;;;;;;2.68;63.21;97843.20;220610;1277;139087;-59
2022/02/01 18:30:32;;;;;;;19.90;10.90;;;;;;;2.68;63.10;97834.13;220866;1277;140390;-60
2022/02/01 18:35:41;;;;;;;19.90;11.00;;;;;;;2.67;63.03;97823.13;220571;1277;138917;-59
2022/02/01 18:40:51;;;;;;;18.50;10.30;;;;;;;2.69;63.14;97819.69;220365;1280;140907;-58
2022/02/01 18:46:04;;;;;;;22.60;9.70;;;;;;;2.73;62.96;97803.23;220455;1279;139036;-59
2022/02/01 18:51:14;;;;;;;18.10;8.40;;;;;;;2.82;62.86;97775.77;220911;1277;139852;-60
2022/02/01 19:12:19;;;;;;;14.20;7.30;;;;;;;3.10;62.46;97731.78;220739;1277;139400;-60
2022/02/01 19:17:22;;;;;;;14.00;7.50;;;;;;;3.12;62.49;97719.92;220675;1277;138980;-60
2022/02/01 19:22:31;;;;;;;11.10;7.00;;;;;;;3.12;62.54;97716.79;220873;1277;138756;-61
2022/02/01 19:27:37;;;;;;;10.80;6.00;;;;;;;3.09;62.83;97708.87;220777;1279;139378;-59
2022/02/01 19:32:40;;;;;;;14.80;7.50;;;;;;;3.08;63.23;97691.58;220638;1280;139428;-62
2022/02/01 19:37:48;;;;;;;10.80;6.30;;;;;;;3.17;63.26;97673.57;220947;1277;139265;-60
2022/02/01 19:42:58;;;;;;;10.40;5.00;;;;;;;3.11;63.10;97656.04;220965;1277;138412;-59
2022/02/01 19:48:03;;;;;;;8.80;5.00;;;;;;;3.05;63.08;97645.11;220843;1277;139531;-62
2022/02/01 19:53:09;;;;;;;8.70;4.60;;;;;;;3.10;62.85;97633.27;220782;1277;140361;-60
2022/02/01 19:58:19;;;;;;;7.10;4.50;;;;;;;3.17;62.91;97609.63;221054;1277;140023;-60
2022/02/01 20:03:23;;;;;;;8.10;4.20;;;;;;;3.23;62.97;97599.63;221117;1277;139273;-58
2022/02/01 20:08:30;;;;;;;14.80;8.00;;;;;;;3.31;62.93;97579.35;220677;1279;138944;-58
2022/02/01 20:13:35;;;;;;;8.20;4.00;;;;;;;3.41;62.53;97567.96;220455;1277;138323;-59
2022/02/01 20:18:39;;;;;;;7.60;3.80;;;;;;;3.43;62.41;97553.42;221178;1277;140495;-63
2022/02/01 20:23:42;;;;;;;10.20;5.00;;;;;;;3.50;62.37;97540.05;220909;1277;138189;-60
2022/02/01 20:28:45;;;;;;;7.10;3.00;;;;;;;3.54;62.14;97527.89;220386;1279;140269;-62
2022/02/01 20:33:54;;;;;;;9.70;5.60;;;;;;;3.51;61.94;97521.77;220752;1277;141041;-58
2022/02/01 20:39:06;;;;;;;8.90;3.70;;;;;;;3.53;62.06;97514.10;221072;1276;139796;-61
2022/02/01 20:44:09;;;;;;;4.90;3.00;;;;;;;3.51;61.93;97503.17;221022;1277;138443;-61
2022/02/01 20:49:12;;;;;;;5.80;3.20;;;;;;;3.44;61.96;97491.51;220757;1279;138716;-61
2022/02/01 20:54:15;;;;;;;5.80;2.70;;;;;;;3.41;61.83;97489.05;220680;1279;138687;-62
2022/02/01 20:59:18;;;;;;;5.70;3.10;;;;;;;3.34;62.20;97483.70;220934;1277;140980;-59
2022/02/01 21:04:21;;;;;;;6.20;3.20;;;;;;;3.25;62.74;97472.48;220901;1277;139247;-60
2022/02/01 21:09:24;;;;;;;7.40;3.30;;;;;;;3.12;63.04;97468.66;220758;1277;139134;-60
2022/02/01 21:14:27;;;;;;;5.50;2.90;;;;;;;2.94;63.48;97467.55;220700;1279;139113;-58
2022/02/01 21:19:30;;;;;;;5.20;3.20;;;;;;;2.86;64.01;97457.54;220808;1277;139220;-59
2022/02/01 21:24:33;;;;;;;6.80;3.70;;;;;;;2.78;64.52;97444.84;220826;1277;139059;-61
2022/02/01 21:29:40;;;;;;;6.80;2.90;;;;;;;2.77;64.93;97427.93;220601;1278;138014;-61
2022/02/01 21:34:44;;;;;;;5.50;3.10;;;;;;;2.71;65.23;97417.55;220380;1279;139219;-61
2022/02/01 21:39:47;;;;;;;5.50;3.40;;;;;;;2.64;65.43;97410.82;220718;1277;139850;-60
2022/02/01 21:44:50;;;;;;;6.30;3.00;;;;;;;2.60;65.66;97406.63;220828;1277;138680;-59
2022/02/01 21:49:53;;;;;;;6.00;2.80;;;;;;;2.51;65.87;97401.02;220709;1277;138345;-64
2022/02/01 21:54:56;;;;;;;5.70;2.90;;;;;;;2.49;66.19;97389.22;220793;1277;139218;-60
2022/02/01 21:59:59;;;;;;;4.20;2.30;;;;;;;2.55;66.46;97385.91;220489;1280;139641;-60
2022/02/01 22:05:03;;;;;;;7.80;2.90;;;;;;;2.58;66.61;97375.39;220723;1278;150308;-62
2022/02/01 22:10:08;;;;;;;5.70;2.60;;;;;;;2.60;66.89;97371.64;220836;1277;139400;-62
2022/02/01 22:15:11;;;;;;;;;;;;;;;2.57;67.02;97358.98;221079;1277;138982;-60
2022/02/01 22:20:14;;;;;;;5.70;2.80;;;;;;;2.51;67.08;97349.02;220880;1277;124993;-60
2022/02/01 22:25:17;;;;;;;4.20;2.00;;;;;;;2.46;67.15;97341.11;220815;1277;140077;-59
2022/02/01 22:30:20;;;;;;;5.20;2.50;;;;;;;2.42;67.39;97333.10;220891;1277;139145;-59
2022/02/01 22:35:27;;;;;;;4.30;2.70;;;;;;;2.39;67.57;97333.77;220895;1277;140442;-60
2022/02/01 22:40:30;;;;;;;4.40;2.60;;;;;;;2.39;67.82;97332.23;220733;1277;139449;-60
2022/02/01 22:45:34;;;;;;;4.00;2.90;;;;;;;2.35;67.89;97321.04;220807;1280;139450;-59
2022/02/01 22:50:37;;;;;;;4.20;2.90;;;;;;;2.31;68.09;97313.59;220832;1277;140617;-58
2022/02/01 22:55:40;;;;;;;6.00;3.70;;;;;;;2.32;68.26;97311.96;221024;1277;138367;-60
2022/02/01 23:00:46;;;;;;;5.00;2.70;;;;;;;2.34;68.46;97306.96;220696;1278;138911;-59
2022/02/01 23:06:05;;;;;;;5.40;3.20;;;;;;;2.33;68.45;97290.88;220668;1279;139818;-59
2022/02/01 23:11:20;;;;;;;4.70;3.00;;;;;;;2.31;68.65;97277.17;220910;1277;138904;-60
2022/02/01 23:21:48;;;;;;;3.50;2.30;;;;;;;2.36;68.96;97265.20;220714;1279;139129;-59
2022/02/01 23:26:52;;;;;;;5.40;2.00;;;;;;;2.36;68.93;97260.79;220976;1277;139388;-60
2022/02/01 23:32:00;;;;;;;4.60;2.10;;;;;;;2.39;69.00;97249.44;220857;1277;140277;-61
2022/02/01 23:42:42;;;;;;;3.40;2.00;;;;;;;2.51;69.02;97242.92;220864;1277;138987;-61
2022/02/01 23:47:48;;;;;;;3.30;1.60;;;;;;;2.49;68.97;97237.83;220809;1279;138614;-61
2022/02/01 23:52:54;;;;;;;3.00;1.80;;;;;;;2.47;69.07;97236.17;220772;1279;138434;-59
2022/02/01 23:58:12;;;;;;;4.40;1.50;;;;;;;2.44;69.20;97234.59;220953;1277;138510;-60
